sensor_id;sensor_type;location;lat;lon;timestamp;temperature;humidity
75161;DHT22;67232;50.096;8.716;2023-03-04T00:00:38;4.20;72.20
75161;DHT22;67232;50.096;8.716;2023-03-04T00:03:08;4.00;72.50
75161;DHT22;67232;50.096;8.716;2023-03-04T00:05:36;3.90;72.80
75161;DHT22;67232;50.096;8.716;2023-03-04T00:08:02;4.10;72.50
75161;DHT22;67232;50.096;8.716;2023-03-04T00:10:27;3.90;72.80
75161;DHT22;67232;50.096;8.716;2023-03-04T00:12:53;4.10;72.40
75161;DHT22;67232;50.096;8.716;2023-03-04T00:15:19;4.00;72.60
75161;DHT22;67232;50.096;8.716;2023-03-04T00:17:47;3.80;73.40
75161;DHT22;67232;50.096;8.716;2023-03-04T00:20:12;3.80;73.40
75161;DHT22;67232;50.096;8.716;2023-03-04T00:22:40;3.80;73.90
75161;DHT22;67232;50.096;8.716;2023-03-04T00:25:06;3.70;73.50
75161;DHT22;67232;50.096;8.716;2023-03-04T00:27:32;3.50;74.40
75161;DHT22;67232;50.096;8.716;2023-03-04T00:29:59;3.30;74.70
75161;DHT22;67232;50.096;8.716;2023-03-04T00:32:25;3.40;74.90
75161;DHT22;67232;50.096;8.716;2023-03-04T00:34:50;3.40;74.80
75161;DHT22;67232;50.096;8.716;2023-03-04T00:37:18;3.40;74.80
75161;DHT22;67232;50.096;8.716;2023-03-04T00:39:44;3.60;74.50
75161;DHT22;67232;50.096;8.716;2023-03-04T00:42:09;3.70;74.10
75161;DHT22;67232;50.096;8.716;2023-03-04T00:44:35;3.60;73.90
75161;DHT22;67232;50.096;8.716;2023-03-04T00:47:05;3.60;73.90
75161;DHT22;67232;50.096;8.716;2023-03-04T00:49:30;3.70;74.00
75161;DHT22;67232;50.096;8.716;2023-03-04T00:51:58;3.60;73.90
75161;DHT22;67232;50.096;8.716;2023-03-04T00:54:24;3.60;74.20
75161;DHT22;67232;50.096;8.716;2023-03-04T00:56:51;3.60;74.10
75161;DHT22;67232;50.096;8.716;2023-03-04T00:59:17;3.90;73.50
75161;DHT22;67232;50.096;8.716;2023-03-04T01:01:43;4.00;72.70
75161;DHT22;67232;50.096;8.716;2023-03-04T01:04:11;3.90;72.40
75161;DHT22;67232;50.096;8.716;2023-03-04T01:06:39;3.80;72.90
75161;DHT22;67232;50.096;8.716;2023-03-04T01:09:04;4.00;72.40
75161;DHT22;67232;50.096;8.716;2023-03-04T01:11:32;4.00;72.60
75161;DHT22;67232;50.096;8.716;2023-03-04T01:13:58;4.00;72.80
75161;DHT22;67232;50.096;8.716;2023-03-04T01:16:24;4.00;72.90
75161;DHT22;67232;50.096;8.716;2023-03-04T01:18:52;4.00;72.80
75161;DHT22;67232;50.096;8.716;2023-03-04T01:21:17;4.10;73.10
75161;DHT22;67232;50.096;8.716;2023-03-04T01:23:43;4.20;72.40
75161;DHT22;67232;50.096;8.716;2023-03-04T01:26:09;4.40;72.10
75161;DHT22;67232;50.096;8.716;2023-03-04T01:28:34;4.50;71.80
75161;DHT22;67232;50.096;8.716;2023-03-04T01:31:05;4.40;71.70
75161;DHT22;67232;50.096;8.716;2023-03-04T01:33:33;4.70;71.50
75161;DHT22;67232;50.096;8.716;2023-03-04T01:35:59;4.60;71.40
75161;DHT22;67232;50.096;8.716;2023-03-04T01:38:24;4.60;71.50
75161;DHT22;67232;50.096;8.716;2023-03-04T01:40:50;4.70;71.10
75161;DHT22;67232;50.096;8.716;2023-03-04T01:43:22;4.60;71.30
75161;DHT22;67232;50.096;8.716;2023-03-04T01:45:50;4.60;71.70
75161;DHT22;67232;50.096;8.716;2023-03-04T01:48:24;4.50;71.60
75161;DHT22;67232;50.096;8.716;2023-03-04T01:50:50;4.50;71.50
75161;DHT22;67232;50.096;8.716;2023-03-04T01:53:24;4.60;71.70
75161;DHT22;67232;50.096;8.716;2023-03-04T01:55:53;4.60;71.40
75161;DHT22;67232;50.096;8.716;2023-03-04T01:58:19;4.40;71.50
75161;DHT22;67232;50.096;8.716;2023-03-04T02:00:47;4.50;71.80
75161;DHT22;67232;50.096;8.716;2023-03-04T02:03:15;4.50;71.80
75161;DHT22;67232;50.096;8.716;2023-03-04T02:05:48;4.70;71.50
75161;DHT22;67232;50.096;8.716;2023-03-04T02:08:16;4.70;71.10
75161;DHT22;67232;50.096;8.716;2023-03-04T02:10:43;4.70;71.20
75161;DHT22;67232;50.096;8.716;2023-03-04T02:13:11;4.70;71.00
75161;DHT22;67232;50.096;8.716;2023-03-04T02:15:38;4.80;71.00
75161;DHT22;67232;50.096;8.716;2023-03-04T02:18:22;4.80;70.50
75161;DHT22;67232;50.096;8.716;2023-03-04T02:21:02;4.80;70.80
75161;DHT22;67232;50.096;8.716;2023-03-04T02:23:37;4.80;70.60
75161;DHT22;67232;50.096;8.716;2023-03-04T02:26:20;4.50;71.20
75161;DHT22;67232;50.096;8.716;2023-03-04T02:28:51;4.50;71.20
75161;DHT22;67232;50.096;8.716;2023-03-04T02:31:37;4.50;71.10
75161;DHT22;67232;50.096;8.716;2023-03-04T02:34:23;4.70;71.00
75161;DHT22;67232;50.096;8.716;2023-03-04T02:36:51;4.50;70.70
75161;DHT22;67232;50.096;8.716;2023-03-04T02:41:52;4.20;71.50
75161;DHT22;67232;50.096;8.716;2023-03-04T02:44:23;4.10;71.70
75161;DHT22;67232;50.096;8.716;2023-03-04T02:46:50;3.90;71.80
75161;DHT22;67232;50.096;8.716;2023-03-04T02:49:16;3.80;72.40
75161;DHT22;67232;50.096;8.716;2023-03-04T02:51:42;3.70;72.30
75161;DHT22;67232;50.096;8.716;2023-03-04T02:54:19;3.80;71.90
75161;DHT22;67232;50.096;8.716;2023-03-04T02:56:51;4.00;71.10
75161;DHT22;67232;50.096;8.716;2023-03-04T02:59:21;3.60;71.40
75161;DHT22;67232;50.096;8.716;2023-03-04T03:01:52;3.40;72.00
75161;DHT22;67232;50.096;8.716;2023-03-04T03:04:19;3.40;72.30
75161;DHT22;67232;50.096;8.716;2023-03-04T03:06:45;3.30;72.50
75161;DHT22;67232;50.096;8.716;2023-03-04T03:09:14;3.10;72.70
75161;DHT22;67232;50.096;8.716;2023-03-04T03:11:40;2.90;73.40
75161;DHT22;67232;50.096;8.716;2023-03-04T03:14:06;2.80;74.20
75161;DHT22;67232;50.096;8.716;2023-03-04T03:16:32;2.80;74.50
75161;DHT22;67232;50.096;8.716;2023-03-04T03:18:57;2.40;74.90
75161;DHT22;67232;50.096;8.716;2023-03-04T03:21:25;2.10;76.20
75161;DHT22;67232;50.096;8.716;2023-03-04T03:23:51;2.10;77.00
75161;DHT22;67232;50.096;8.716;2023-03-04T03:26:17;2.10;76.70
75161;DHT22;67232;50.096;8.716;2023-03-04T03:28:43;1.90;76.70
75161;DHT22;67232;50.096;8.716;2023-03-04T03:31:09;1.70;77.90
75161;DHT22;67232;50.096;8.716;2023-03-04T03:33:39;2.20;77.20
75161;DHT22;67232;50.096;8.716;2023-03-04T03:36:05;2.30;76.80
75161;DHT22;67232;50.096;8.716;2023-03-04T03:38:31;2.30;76.60
75161;DHT22;67232;50.096;8.716;2023-03-04T03:40:56;2.50;76.20
75161;DHT22;67232;50.096;8.716;2023-03-04T03:43:22;2.30;76.60
75161;DHT22;67232;50.096;8.716;2023-03-04T03:45:47;2.20;77.20
75161;DHT22;67232;50.096;8.716;2023-03-04T03:48:13;2.40;76.90
75161;DHT22;67232;50.096;8.716;2023-03-04T03:50:38;2.80;76.20
75161;DHT22;67232;50.096;8.716;2023-03-04T03:53:06;3.00;75.60
75161;DHT22;67232;50.096;8.716;2023-03-04T03:55:31;3.20;74.80
75161;DHT22;67232;50.096;8.716;2023-03-04T03:57:57;3.50;73.60
75161;DHT22;67232;50.096;8.716;2023-03-04T04:00:23;3.30;74.00
75161;DHT22;67232;50.096;8.716;2023-03-04T04:02:48;3.10;74.80
75161;DHT22;67232;50.096;8.716;2023-03-04T04:05:14;2.90;74.90
75161;DHT22;67232;50.096;8.716;2023-03-04T04:07:40;2.70;76.30
75161;DHT22;67232;50.096;8.716;2023-03-04T04:10:09;2.90;75.90
75161;DHT22;67232;50.096;8.716;2023-03-04T04:12:37;3.20;75.70
75161;DHT22;67232;50.096;8.716;2023-03-04T04:15:03;3.40;74.90
75161;DHT22;67232;50.096;8.716;2023-03-04T04:17:31;3.60;74.70
75161;DHT22;67232;50.096;8.716;2023-03-04T04:19:59;3.60;74.10
75161;DHT22;67232;50.096;8.716;2023-03-04T04:22:24;3.80;74.10
75161;DHT22;67232;50.096;8.716;2023-03-04T04:24:52;4.00;73.60
75161;DHT22;67232;50.096;8.716;2023-03-04T04:27:18;3.90;73.30
75161;DHT22;67232;50.096;8.716;2023-03-04T04:29:43;3.60;74.10
75161;DHT22;67232;50.096;8.716;2023-03-04T04:32:09;3.80;74.20
75161;DHT22;67232;50.096;8.716;2023-03-04T04:34:37;3.60;74.50
75161;DHT22;67232;50.096;8.716;2023-03-04T04:37:03;3.50;75.20
75161;DHT22;67232;50.096;8.716;2023-03-04T04:39:28;3.70;74.60
75161;DHT22;67232;50.096;8.716;2023-03-04T04:41:54;4.10;73.80
75161;DHT22;67232;50.096;8.716;2023-03-04T04:44:22;4.20;73.40
75161;DHT22;67232;50.096;8.716;2023-03-04T04:46:49;4.10;73.10
75161;DHT22;67232;50.096;8.716;2023-03-04T04:49:15;4.10;73.60
75161;DHT22;67232;50.096;8.716;2023-03-04T04:51:41;4.00;73.30
75161;DHT22;67232;50.096;8.716;2023-03-04T04:54:09;4.10;74.20
75161;DHT22;67232;50.096;8.716;2023-03-04T04:56:35;4.20;73.20
75161;DHT22;67232;50.096;8.716;2023-03-04T04:59:02;4.00;73.60
75161;DHT22;67232;50.096;8.716;2023-03-04T05:01:29;3.80;74.50
75161;DHT22;67232;50.096;8.716;2023-03-04T05:03:55;3.80;74.40
75161;DHT22;67232;50.096;8.716;2023-03-04T05:06:22;3.80;74.70
75161;DHT22;67232;50.096;8.716;2023-03-04T05:08:51;3.90;74.30
75161;DHT22;67232;50.096;8.716;2023-03-04T05:11:17;3.70;74.70
75161;DHT22;67232;50.096;8.716;2023-03-04T05:13:43;4.10;74.20
75161;DHT22;67232;50.096;8.716;2023-03-04T05:16:09;4.10;73.60
75161;DHT22;67232;50.096;8.716;2023-03-04T05:18:37;4.00;74.00
75161;DHT22;67232;50.096;8.716;2023-03-04T05:21:04;4.10;73.80
75161;DHT22;67232;50.096;8.716;2023-03-04T05:23:34;3.80;74.50
75161;DHT22;67232;50.096;8.716;2023-03-04T05:26:01;3.60;75.00
75161;DHT22;67232;50.096;8.716;2023-03-04T05:28:27;3.10;76.70
75161;DHT22;67232;50.096;8.716;2023-03-04T05:30:52;3.20;77.00
75161;DHT22;67232;50.096;8.716;2023-03-04T05:33:18;3.50;76.30
75161;DHT22;67232;50.096;8.716;2023-03-04T05:35:45;3.50;76.50
75161;DHT22;67232;50.096;8.716;2023-03-04T05:38:17;3.80;75.60
75161;DHT22;67232;50.096;8.716;2023-03-04T05:40:43;3.90;75.10
75161;DHT22;67232;50.096;8.716;2023-03-04T05:43:09;3.70;75.60
75161;DHT22;67232;50.096;8.716;2023-03-04T05:45:35;4.00;75.00
75161;DHT22;67232;50.096;8.716;2023-03-04T05:48:01;4.00;75.00
75161;DHT22;67232;50.096;8.716;2023-03-04T05:50:27;3.70;75.00
75161;DHT22;67232;50.096;8.716;2023-03-04T05:52:56;3.80;75.60
75161;DHT22;67232;50.096;8.716;2023-03-04T05:55:24;3.90;75.00
75161;DHT22;67232;50.096;8.716;2023-03-04T05:57:51;3.90;75.10
75161;DHT22;67232;50.096;8.716;2023-03-04T06:00:17;4.20;74.40
75161;DHT22;67232;50.096;8.716;2023-03-04T06:02:43;4.30;73.50
75161;DHT22;67232;50.096;8.716;2023-03-04T06:05:09;4.30;73.10
75161;DHT22;67232;50.096;8.716;2023-03-04T06:07:35;4.30;73.30
75161;DHT22;67232;50.096;8.716;2023-03-04T06:10:04;4.30;73.10
75161;DHT22;67232;50.096;8.716;2023-03-04T06:12:29;4.30;73.20
75161;DHT22;67232;50.096;8.716;2023-03-04T06:14:55;4.50;72.50
75161;DHT22;67232;50.096;8.716;2023-03-04T06:17:23;4.70;72.10
75161;DHT22;67232;50.096;8.716;2023-03-04T06:19:48;4.40;72.40
75161;DHT22;67232;50.096;8.716;2023-03-04T06:22:14;4.50;72.60
75161;DHT22;67232;50.096;8.716;2023-03-04T06:24:39;4.60;71.80
75161;DHT22;67232;50.096;8.716;2023-03-04T06:27:05;4.50;72.00
75161;DHT22;67232;50.096;8.716;2023-03-04T06:29:31;4.30;73.10
75161;DHT22;67232;50.096;8.716;2023-03-04T06:31:56;4.30;73.20
75161;DHT22;67232;50.096;8.716;2023-03-04T06:34:24;4.50;72.70
75161;DHT22;67232;50.096;8.716;2023-03-04T06:36:51;4.50;72.60
75161;DHT22;67232;50.096;8.716;2023-03-04T06:39:16;4.70;72.40
75161;DHT22;67232;50.096;8.716;2023-03-04T06:41:42;4.60;72.60
75161;DHT22;67232;50.096;8.716;2023-03-04T06:44:07;4.70;72.40
75161;DHT22;67232;50.096;8.716;2023-03-04T06:46:34;4.70;72.30
75161;DHT22;67232;50.096;8.716;2023-03-04T06:49:02;4.80;72.20
75161;DHT22;67232;50.096;8.716;2023-03-04T06:51:28;4.60;72.60
75161;DHT22;67232;50.096;8.716;2023-03-04T06:53:56;4.70;72.50
75161;DHT22;67232;50.096;8.716;2023-03-04T06:56:22;4.60;72.60
75161;DHT22;67232;50.096;8.716;2023-03-04T06:58:47;4.70;72.40
75161;DHT22;67232;50.096;8.716;2023-03-04T07:01:18;4.70;72.30
75161;DHT22;67232;50.096;8.716;2023-03-04T07:03:45;4.80;72.20
75161;DHT22;67232;50.096;8.716;2023-03-04T07:06:12;4.50;72.30
75161;DHT22;67232;50.096;8.716;2023-03-04T07:08:38;4.40;72.90
75161;DHT22;67232;50.096;8.716;2023-03-04T07:11:04;4.60;73.30
75161;DHT22;67232;50.096;8.716;2023-03-04T07:13:30;4.70;73.20
75161;DHT22;67232;50.096;8.716;2023-03-04T07:15:56;4.70;72.90
75161;DHT22;67232;50.096;8.716;2023-03-04T07:18:26;4.80;73.10
75161;DHT22;67232;50.096;8.716;2023-03-04T07:20:52;4.90;72.80
75161;DHT22;67232;50.096;8.716;2023-03-04T07:23:18;4.70;72.40
75161;DHT22;67232;50.096;8.716;2023-03-04T07:25:44;4.70;73.60
75161;DHT22;67232;50.096;8.716;2023-03-04T07:28:09;4.70;73.70
75161;DHT22;67232;50.096;8.716;2023-03-04T07:30:37;4.90;72.90
75161;DHT22;67232;50.096;8.716;2023-03-04T07:33:03;4.90;73.10
75161;DHT22;67232;50.096;8.716;2023-03-04T07:35:31;5.00;72.90
75161;DHT22;67232;50.096;8.716;2023-03-04T07:37:57;4.90;72.90
75161;DHT22;67232;50.096;8.716;2023-03-04T07:40:25;5.10;72.30
75161;DHT22;67232;50.096;8.716;2023-03-04T07:42:52;5.30;72.00
75161;DHT22;67232;50.096;8.716;2023-03-04T07:45:18;5.20;71.90
75161;DHT22;67232;50.096;8.716;2023-03-04T07:47:43;5.20;72.00
75161;DHT22;67232;50.096;8.716;2023-03-04T07:50:10;5.40;71.40
75161;DHT22;67232;50.096;8.716;2023-03-04T07:52:39;5.40;71.20
75161;DHT22;67232;50.096;8.716;2023-03-04T07:55:05;5.40;71.20
75161;DHT22;67232;50.096;8.716;2023-03-04T07:57:31;5.40;71.00
75161;DHT22;67232;50.096;8.716;2023-03-04T07:59:56;5.30;71.40
75161;DHT22;67232;50.096;8.716;2023-03-04T08:02:27;5.40;72.10
75161;DHT22;67232;50.096;8.716;2023-03-04T08:04:54;5.50;71.70
75161;DHT22;67232;50.096;8.716;2023-03-04T08:07:20;5.50;71.60
75161;DHT22;67232;50.096;8.716;2023-03-04T08:09:48;5.60;71.10
75161;DHT22;67232;50.096;8.716;2023-03-04T08:12:14;5.60;70.80
75161;DHT22;67232;50.096;8.716;2023-03-04T08:14:40;5.80;70.80
75161;DHT22;67232;50.096;8.716;2023-03-04T08:17:05;5.80;70.30
75161;DHT22;67232;50.096;8.716;2023-03-04T08:19:31;5.70;70.50
75161;DHT22;67232;50.096;8.716;2023-03-04T08:21:59;5.80;70.50
75161;DHT22;67232;50.096;8.716;2023-03-04T08:24:24;5.80;70.10
75161;DHT22;67232;50.096;8.716;2023-03-04T08:26:50;5.70;71.20
75161;DHT22;67232;50.096;8.716;2023-03-04T08:29:18;5.70;71.00
75161;DHT22;67232;50.096;8.716;2023-03-04T08:31:46;5.60;71.10
75161;DHT22;67232;50.096;8.716;2023-03-04T08:34:12;5.60;70.80
75161;DHT22;67232;50.096;8.716;2023-03-04T08:36:41;5.70;70.90
75161;DHT22;67232;50.096;8.716;2023-03-04T08:39:11;5.80;70.60
75161;DHT22;67232;50.096;8.716;2023-03-04T08:41:37;6.00;70.30
75161;DHT22;67232;50.096;8.716;2023-03-04T08:44:05;5.90;70.20
75161;DHT22;67232;50.096;8.716;2023-03-04T08:46:32;6.00;70.00
75161;DHT22;67232;50.096;8.716;2023-03-04T08:48:58;6.00;69.90
75161;DHT22;67232;50.096;8.716;2023-03-04T08:51:24;6.00;69.70
75161;DHT22;67232;50.096;8.716;2023-03-04T08:53:50;5.90;69.90
75161;DHT22;67232;50.096;8.716;2023-03-04T08:56:15;5.90;69.90
75161;DHT22;67232;50.096;8.716;2023-03-04T08:58:41;5.90;69.70
75161;DHT22;67232;50.096;8.716;2023-03-04T09:01:11;5.90;69.70
75161;DHT22;67232;50.096;8.716;2023-03-04T09:03:38;6.00;69.50
75161;DHT22;67232;50.096;8.716;2023-03-04T09:06:05;6.10;69.30
75161;DHT22;67232;50.096;8.716;2023-03-04T09:08:30;6.20;69.20
75161;DHT22;67232;50.096;8.716;2023-03-04T09:10:56;6.20;68.90
75161;DHT22;67232;50.096;8.716;2023-03-04T09:13:26;6.20;68.90
75161;DHT22;67232;50.096;8.716;2023-03-04T09:15:52;6.40;68.60
75161;DHT22;67232;50.096;8.716;2023-03-04T09:18:20;6.30;68.80
75161;DHT22;67232;50.096;8.716;2023-03-04T09:20:46;6.20;68.70
75161;DHT22;67232;50.096;8.716;2023-03-04T09:23:12;6.10;68.90
75161;DHT22;67232;50.096;8.716;2023-03-04T09:25:39;6.20;68.90
75161;DHT22;67232;50.096;8.716;2023-03-04T09:28:05;6.30;68.70
75161;DHT22;67232;50.096;8.716;2023-03-04T09:30:31;6.40;68.10
75161;DHT22;67232;50.096;8.716;2023-03-04T09:32:59;6.50;68.10
75161;DHT22;67232;50.096;8.716;2023-03-04T09:35:25;6.50;67.90
75161;DHT22;67232;50.096;8.716;2023-03-04T09:37:51;6.40;68.20
75161;DHT22;67232;50.096;8.716;2023-03-04T09:40:31;6.60;68.00
75161;DHT22;67232;50.096;8.716;2023-03-04T09:43:00;6.50;67.70
75161;DHT22;67232;50.096;8.716;2023-03-04T09:45:35;6.50;68.00
75161;DHT22;67232;50.096;8.716;2023-03-04T09:48:02;6.80;67.50
75161;DHT22;67232;50.096;8.716;2023-03-04T09:50:31;6.80;67.70
75161;DHT22;67232;50.096;8.716;2023-03-04T09:53:21;6.80;67.30
75161;DHT22;67232;50.096;8.716;2023-03-04T09:55:52;6.90;67.10
75161;DHT22;67232;50.096;8.716;2023-03-04T09:59:28;6.80;66.80
75161;DHT22;67232;50.096;8.716;2023-03-04T10:01:41;6.80;67.60
75161;DHT22;67232;50.096;8.716;2023-03-04T10:04:28;6.80;67.00
75161;DHT22;67232;50.096;8.716;2023-03-04T10:06:55;7.00;66.50
75161;DHT22;67232;50.096;8.716;2023-03-04T10:09:41;7.20;65.80
75161;DHT22;67232;50.096;8.716;2023-03-04T10:12:12;7.30;65.50
75161;DHT22;67232;50.096;8.716;2023-03-04T10:17:15;7.30;65.60
75161;DHT22;67232;50.096;8.716;2023-03-04T10:19:50;7.40;65.50
75161;DHT22;67232;50.096;8.716;2023-03-04T10:24:47;7.30;64.90
75161;DHT22;67232;50.096;8.716;2023-03-04T10:27:15;7.20;65.90
75161;DHT22;67232;50.096;8.716;2023-03-04T10:29:42;7.30;65.80
75161;DHT22;67232;50.096;8.716;2023-03-04T10:32:13;7.30;66.10
75161;DHT22;67232;50.096;8.716;2023-03-04T10:34:43;7.30;65.70
75161;DHT22;67232;50.096;8.716;2023-03-04T10:37:09;7.20;65.20
75161;DHT22;67232;50.096;8.716;2023-03-04T10:39:42;7.10;65.80
75161;DHT22;67232;50.096;8.716;2023-03-04T10:44:55;7.60;65.50
75161;DHT22;67232;50.096;8.716;2023-03-04T10:47:24;7.70;65.60
75161;DHT22;67232;50.096;8.716;2023-03-04T10:50:01;7.80;65.20
75161;DHT22;67232;50.096;8.716;2023-03-04T10:52:39;7.90;65.10
75161;DHT22;67232;50.096;8.716;2023-03-04T10:55:15;8.00;64.80
75161;DHT22;67232;50.096;8.716;2023-03-04T10:57:48;8.00;64.50
75161;DHT22;67232;50.096;8.716;2023-03-04T11:00:36;7.90;64.60
75161;DHT22;67232;50.096;8.716;2023-03-04T11:03:28;7.90;64.60
75161;DHT22;67232;50.096;8.716;2023-03-04T11:08:40;8.00;64.50
75161;DHT22;67232;50.096;8.716;2023-03-04T11:13:58;7.90;64.60
75161;DHT22;67232;50.096;8.716;2023-03-04T11:16:30;8.00;64.10
75161;DHT22;67232;50.096;8.716;2023-03-04T11:19:02;7.90;64.00
75161;DHT22;67232;50.096;8.716;2023-03-04T11:21:35;7.70;64.20
75161;DHT22;67232;50.096;8.716;2023-03-04T11:24:20;7.40;64.70
75161;DHT22;67232;50.096;8.716;2023-03-04T11:29:41;7.30;65.80
75161;DHT22;67232;50.096;8.716;2023-03-04T11:32:17;7.50;65.50
75161;DHT22;67232;50.096;8.716;2023-03-04T11:34:47;7.60;65.00
75161;DHT22;67232;50.096;8.716;2023-03-04T11:40:11;7.90;64.90
75161;DHT22;67232;50.096;8.716;2023-03-04T11:45:19;8.00;64.40
75161;DHT22;67232;50.096;8.716;2023-03-04T11:48:11;8.10;63.90
75161;DHT22;67232;50.096;8.716;2023-03-04T11:51:04;8.10;64.10
75161;DHT22;67232;50.096;8.716;2023-03-04T11:56:48;8.10;63.80
75161;DHT22;67232;50.096;8.716;2023-03-04T12:12:45;8.00;63.40
75161;DHT22;67232;50.096;8.716;2023-03-04T12:35:00;8.10;63.30
75161;DHT22;67232;50.096;8.716;2023-03-04T12:37:43;8.10;63.00
75161;DHT22;67232;50.096;8.716;2023-03-04T12:40:22;8.20;62.90
75161;DHT22;67232;50.096;8.716;2023-03-04T12:48:34;8.80;62.40
75161;DHT22;67232;50.096;8.716;2023-03-04T12:57:05;9.40;61.00
75161;DHT22;67232;50.096;8.716;2023-03-04T12:59:37;9.40;61.10
75161;DHT22;67232;50.096;8.716;2023-03-04T13:05:36;9.50;60.70
75161;DHT22;67232;50.096;8.716;2023-03-04T13:10:58;9.50;60.20
75161;DHT22;67232;50.096;8.716;2023-03-04T13:13:35;9.40;60.50
75161;DHT22;67232;50.096;8.716;2023-03-04T13:16:26;9.40;60.70
75161;DHT22;67232;50.096;8.716;2023-03-04T13:18:48;9.30;60.90
75161;DHT22;67232;50.096;8.716;2023-03-04T13:21:20;9.30;61.10
75161;DHT22;67232;50.096;8.716;2023-03-04T13:23:49;9.20;60.90
75161;DHT22;67232;50.096;8.716;2023-03-04T13:26:28;9.20;61.80
75161;DHT22;67232;50.096;8.716;2023-03-04T13:29:30;9.40;61.50
75161;DHT22;67232;50.096;8.716;2023-03-04T13:31:59;9.40;61.10
75161;DHT22;67232;50.096;8.716;2023-03-04T13:34:48;9.10;61.20
75161;DHT22;67232;50.096;8.716;2023-03-04T13:37:35;9.20;61.60
75161;DHT22;67232;50.096;8.716;2023-03-04T13:42:50;9.40;61.10
75161;DHT22;67232;50.096;8.716;2023-03-04T13:48:20;9.10;61.30
75161;DHT22;67232;50.096;8.716;2023-03-04T13:50:50;9.00;61.70
75161;DHT22;67232;50.096;8.716;2023-03-04T13:53:38;9.10;62.20
75161;DHT22;67232;50.096;8.716;2023-03-04T13:58:43;9.20;61.70
75161;DHT22;67232;50.096;8.716;2023-03-04T14:01:29;9.30;61.20
75161;DHT22;67232;50.096;8.716;2023-03-04T14:04:19;9.20;61.20
75161;DHT22;67232;50.096;8.716;2023-03-04T14:06:47;9.30;61.40
75161;DHT22;67232;50.096;8.716;2023-03-04T14:09:14;9.30;61.10
75161;DHT22;67232;50.096;8.716;2023-03-04T14:11:45;9.20;61.40
75161;DHT22;67232;50.096;8.716;2023-03-04T14:14:13;9.30;61.30
75161;DHT22;67232;50.096;8.716;2023-03-04T14:16:48;9.30;61.40
75161;DHT22;67232;50.096;8.716;2023-03-04T14:19:17;9.30;61.30
75161;DHT22;67232;50.096;8.716;2023-03-04T14:21:50;9.20;61.90
75161;DHT22;67232;50.096;8.716;2023-03-04T14:24:17;9.20;62.00
75161;DHT22;67232;50.096;8.716;2023-03-04T14:26:43;9.20;62.30
75161;DHT22;67232;50.096;8.716;2023-03-04T14:29:28;9.10;62.40
75161;DHT22;67232;50.096;8.716;2023-03-04T14:31:57;9.20;62.50
75161;DHT22;67232;50.096;8.716;2023-03-04T14:36:58;9.30;62.40
75161;DHT22;67232;50.096;8.716;2023-03-04T14:39:24;9.30;62.60
75161;DHT22;67232;50.096;8.716;2023-03-04T14:41:53;9.00;63.00
75161;DHT22;67232;50.096;8.716;2023-03-04T14:44:29;9.10;63.40
75161;DHT22;67232;50.096;8.716;2023-03-04T14:47:11;9.00;63.60
75161;DHT22;67232;50.096;8.716;2023-03-04T14:49:44;9.10;63.40
75161;DHT22;67232;50.096;8.716;2023-03-04T14:52:48;9.00;63.90
75161;DHT22;67232;50.096;8.716;2023-03-04T14:55:20;9.00;63.90
75161;DHT22;67232;50.096;8.716;2023-03-04T14:57:53;8.80;64.20
75161;DHT22;67232;50.096;8.716;2023-03-04T15:00:33;9.00;64.20
75161;DHT22;67232;50.096;8.716;2023-03-04T15:03:00;9.00;64.40
75161;DHT22;67232;50.096;8.716;2023-03-04T15:05:35;8.80;64.70
75161;DHT22;67232;50.096;8.716;2023-03-04T15:08:23;8.70;65.30
75161;DHT22;67232;50.096;8.716;2023-03-04T15:10:56;8.70;65.40
75161;DHT22;67232;50.096;8.716;2023-03-04T15:13:42;8.80;65.40
75161;DHT22;67232;50.096;8.716;2023-03-04T15:16:09;8.90;65.10
75161;DHT22;67232;50.096;8.716;2023-03-04T15:18:38;8.80;65.60
75161;DHT22;67232;50.096;8.716;2023-03-04T15:21:50;8.90;65.50
75161;DHT22;67232;50.096;8.716;2023-03-04T15:23:53;8.90;65.70
75161;DHT22;67232;50.096;8.716;2023-03-04T15:26:21;9.00;65.50
75161;DHT22;67232;50.096;8.716;2023-03-04T15:28:46;9.10;65.30
75161;DHT22;67232;50.096;8.716;2023-03-04T15:31:16;9.00;65.20
75161;DHT22;67232;50.096;8.716;2023-03-04T15:33:45;8.90;65.20
75161;DHT22;67232;50.096;8.716;2023-03-04T15:36:16;8.90;65.60
75161;DHT22;67232;50.096;8.716;2023-03-04T15:38:45;8.90;65.50
75161;DHT22;67232;50.096;8.716;2023-03-04T15:41:23;8.80;65.80
75161;DHT22;67232;50.096;8.716;2023-03-04T15:43:54;8.90;65.80
75161;DHT22;67232;50.096;8.716;2023-03-04T15:46:22;8.80;66.00
75161;DHT22;67232;50.096;8.716;2023-03-04T15:48:50;8.90;65.40
75161;DHT22;67232;50.096;8.716;2023-03-04T15:51:22;8.70;66.10
75161;DHT22;67232;50.096;8.716;2023-03-04T15:58:52;8.90;65.80
75161;DHT22;67232;50.096;8.716;2023-03-04T16:01:19;9.00;65.80
75161;DHT22;67232;50.096;8.716;2023-03-04T16:03:44;9.00;65.50
75161;DHT22;67232;50.096;8.716;2023-03-04T16:06:13;9.00;65.60
75161;DHT22;67232;50.096;8.716;2023-03-04T16:08:40;9.00;65.80
75161;DHT22;67232;50.096;8.716;2023-03-04T16:11:17;8.90;65.90
75161;DHT22;67232;50.096;8.716;2023-03-04T16:13:44;8.90;66.00
75161;DHT22;67232;50.096;8.716;2023-03-04T16:16:14;8.90;66.40
75161;DHT22;67232;50.096;8.716;2023-03-04T16:18:40;8.80;66.90
75161;DHT22;67232;50.096;8.716;2023-03-04T16:21:07;8.90;66.30
75161;DHT22;67232;50.096;8.716;2023-03-04T16:23:40;8.90;66.20
75161;DHT22;67232;50.096;8.716;2023-03-04T16:26:13;8.90;66.30
75161;DHT22;67232;50.096;8.716;2023-03-04T16:28:39;9.00;66.30
75161;DHT22;67232;50.096;8.716;2023-03-04T16:31:05;8.90;66.40
75161;DHT22;67232;50.096;8.716;2023-03-04T16:33:31;9.00;66.60
75161;DHT22;67232;50.096;8.716;2023-03-04T16:35:56;8.80;66.80
75161;DHT22;67232;50.096;8.716;2023-03-04T16:38:25;8.90;67.10
75161;DHT22;67232;50.096;8.716;2023-03-04T16:40:56;9.00;66.70
75161;DHT22;67232;50.096;8.716;2023-03-04T16:43:24;8.80;67.40
75161;DHT22;67232;50.096;8.716;2023-03-04T16:45:50;8.80;67.20
75161;DHT22;67232;50.096;8.716;2023-03-04T16:48:16;8.70;67.60
75161;DHT22;67232;50.096;8.716;2023-03-04T16:50:43;8.60;67.70
75161;DHT22;67232;50.096;8.716;2023-03-04T16:53:28;8.60;68.00
75161;DHT22;67232;50.096;8.716;2023-03-04T16:55:57;8.70;68.00
75161;DHT22;67232;50.096;8.716;2023-03-04T16:58:25;8.80;68.00
75161;DHT22;67232;50.096;8.716;2023-03-04T17:00:50;8.70;67.90
75161;DHT22;67232;50.096;8.716;2023-03-04T17:03:19;8.70;68.00
75161;DHT22;67232;50.096;8.716;2023-03-04T17:05:44;8.60;68.80
75161;DHT22;67232;50.096;8.716;2023-03-04T17:08:14;8.50;69.30
75161;DHT22;67232;50.096;8.716;2023-03-04T17:10:40;8.50;69.00
75161;DHT22;67232;50.096;8.716;2023-03-04T17:13:05;8.50;69.10
75161;DHT22;67232;50.096;8.716;2023-03-04T17:15:36;8.50;69.30
75161;DHT22;67232;50.096;8.716;2023-03-04T17:18:07;8.40;69.70
75161;DHT22;67232;50.096;8.716;2023-03-04T17:20:33;8.50;69.50
75161;DHT22;67232;50.096;8.716;2023-03-04T17:23:01;8.40;69.90
75161;DHT22;67232;50.096;8.716;2023-03-04T17:25:26;8.50;69.80
75161;DHT22;67232;50.096;8.716;2023-03-04T17:27:57;8.50;70.00
75161;DHT22;67232;50.096;8.716;2023-03-04T17:30:22;8.50;69.80
75161;DHT22;67232;50.096;8.716;2023-03-04T17:32:50;8.50;70.10